KELN/ELN METAR and TAF weather

Enter ICAO airport designator
Station Type Date Time Source
KELN METAR 2018/07/20 13:53 UTC NOAA

KELN 201353Z AUTO 30023G30KT 10SM CLR 15/06 A3003 RMK AO2 PK WND 31033/1321 SLP162 T01500061


Station Type Date Time Source
KELN Decoded METAR 2018/07/20 13:53 UTC NOAA

ELLENSBURG BOWERS FIELD, WA, United States (KELN) 47-02N 120-32W 519M
Jul 20, 2018 - 09:53 AM EDT / 2018.07.20 1353 UTC
Wind: from the WNW (300 degrees) at 26 MPH (23 KT) gusting to 35 MPH (30 KT):0
Visibility: 10 mile(s):0
Sky conditions: clear
Temperature: 59.0 F (15.0 C)
Dew Point: 43.0 F (6.1 C)
Relative Humidity: 55%
Pressure (altimeter): 30.03 in. Hg (1016 hPa)
ob: KELN 201353Z AUTO 30023G30KT 10SM CLR 15/06 A3003 RMK AO2 PK WND 31033/1321 SLP162 T01500061
cycle: 14

Station Type Date Time Source
KELN TAF UTC NOAA

Error!


Example: see airport list